KLM7890 EGPH-ENGM
Flight info
| Callsign | KLM7890 |
|---|---|
| Flight time | 1h 18m |
| Altitude | 25000 |
| Route | GRICE P600 ASNUD DCT ADN DCT RIGVU DCT ADOPI |
| Aircraft | A359/H-SDE2E3GHIJ3J4J5LM1ORWXY/LB1D1 |
Departure
| Time | 2026-05-06 17:07 |
|---|---|
| Airport | Edinburgh Airport (EGPH) |
Arrival
| Time | 2026-05-06 18:25 |
|---|---|
| Airport | Oslo-Gardermoen International Airport (ENGM) |
| Time | Latitude | Longitude | Altitude | Speed | Heading |
|---|---|---|---|---|---|
| 2026-05-06 16:44 | 55.94802 | -3.36655 | 109 ft | 0 kts | 89° |
| 2026-05-06 16:58 | 55.94802 | -3.36658 | 109 ft | 0 kts | 89° |
| 2026-05-06 16:58 | 55.94802 | -3.36659 | 109 ft | 2 kts | 89° |
| 2026-05-06 16:58 | 55.94802 | -3.36687 | 109 ft | 0 kts | 83° |
| 2026-05-06 16:59 | 55.94799 | -3.36713 | 108 ft | 3 kts | 57° |
| 2026-05-06 16:59 | 55.94786 | -3.36738 | 108 ft | 3 kts | 36° |
| 2026-05-06 16:59 | 55.94771 | -3.36758 | 107 ft | 3 kts | 26° |
| 2026-05-06 16:59 | 55.94769 | -3.36760 | 107 ft | 0 kts | 21° |
| 2026-05-06 17:02 | 55.94776 | -3.36760 | 111 ft | 4 kts | 6° |
| 2026-05-06 17:02 | 55.94839 | -3.36769 | 110 ft | 14 kts | 349° |
| 2026-05-06 17:03 | 55.94918 | -3.36868 | 107 ft | 13 kts | 285° |
| 2026-05-06 17:03 | 55.94889 | -3.37006 | 107 ft | 16 kts | 240° |
| 2026-05-06 17:03 | 55.94817 | -3.37223 | 109 ft | 25 kts | 239° |
| 2026-05-06 17:03 | 55.94757 | -3.37405 | 113 ft | 17 kts | 239° |
| 2026-05-06 17:04 | 55.94682 | -3.37628 | 114 ft | 24 kts | 237° |
| 2026-05-06 17:04 | 55.94585 | -3.37903 | 114 ft | 30 kts | 240° |
| 2026-05-06 17:04 | 55.94465 | -3.38261 | 114 ft | 37 kts | 237° |
| 2026-05-06 17:04 | 55.94343 | -3.38616 | 119 ft | 13 kts | 239° |
| 2026-05-06 17:05 | 55.94295 | -3.38761 | 120 ft | 15 kts | 247° |
| 2026-05-06 17:05 | 55.94292 | -3.38796 | 121 ft | 3 kts | 267° |
| 2026-05-06 17:05 | 55.94306 | -3.38868 | 121 ft | 8 kts | 304° |
| 2026-05-06 17:05 | 55.94384 | -3.38955 | 121 ft | 16 kts | 344° |
| 2026-05-06 17:06 | 55.94406 | -3.38949 | 121 ft | 7 kts | 19° |
| 2026-05-06 17:06 | 55.94453 | -3.38853 | 120 ft | 4 kts | 55° |
| 2026-05-06 17:06 | 55.94453 | -3.38852 | 120 ft | 0 kts | 55° |
| 2026-05-06 17:06 | 55.94463 | -3.38826 | 119 ft | 15 kts | 60° |
| 2026-05-06 17:07 | 55.94674 | -3.38188 | 118 ft | 104 kts | 58° |
| 2026-05-06 17:07 | 55.95174 | -3.36730 | 385 ft | 155 kts | 59° |
| 2026-05-06 17:07 | 55.95740 | -3.35000 | 1280 ft | 170 kts | 62° |
| 2026-05-06 17:07 | 55.96414 | -3.33038 | 1942 ft | 199 kts | 55° |
| 2026-05-06 17:08 | 55.97437 | -3.31138 | 2675 ft | 226 kts | 40° |
| 2026-05-06 17:08 | 55.98825 | -3.29580 | 3535 ft | 246 kts | 26° |
| 2026-05-06 17:08 | 56.00460 | -3.28531 | 4423 ft | 261 kts | 14° |
| 2026-05-06 17:08 | 56.02289 | -3.27926 | 5254 ft | 270 kts | 6° |
| 2026-05-06 17:09 | 56.04161 | -3.27937 | 5914 ft | 270 kts | 347° |
| 2026-05-06 17:09 | 56.05770 | -3.29488 | 6283 ft | 265 kts | 311° |
| 2026-05-06 17:09 | 56.06546 | -3.32411 | 7148 ft | 265 kts | 276° |
| 2026-05-06 17:09 | 56.06609 | -3.35705 | 8426 ft | 266 kts | 270° |
| 2026-05-06 17:10 | 56.06738 | -3.39039 | 9726 ft | 272 kts | 275° |
| 2026-05-06 17:10 | 56.07039 | -3.42440 | 10755 ft | 286 kts | 279° |
| 2026-05-06 17:10 | 56.07487 | -3.46081 | 11332 ft | 314 kts | 282° |
| 2026-05-06 17:10 | 56.08058 | -3.50007 | 12109 ft | 332 kts | 284° |
| 2026-05-06 17:11 | 56.08803 | -3.53969 | 13213 ft | 340 kts | 294° |
| 2026-05-06 17:11 | 56.09934 | -3.57673 | 14316 ft | 346 kts | 298° |
| 2026-05-06 17:11 | 56.11239 | -3.61333 | 15360 ft | 353 kts | 304° |
| 2026-05-06 17:11 | 56.12980 | -3.64477 | 16437 ft | 363 kts | 321° |
| 2026-05-06 17:12 | 56.15260 | -3.66573 | 17564 ft | 375 kts | 339° |
| 2026-05-06 17:12 | 56.17863 | -3.67319 | 18642 ft | 387 kts | 356° |
| 2026-05-06 17:12 | 56.20562 | -3.66580 | 19603 ft | 399 kts | 14° |
| 2026-05-06 17:12 | 56.23100 | -3.64420 | 20594 ft | 409 kts | 27° |
| 2026-05-06 17:13 | 56.25520 | -3.61642 | 21566 ft | 417 kts | 31° |
| 2026-05-06 17:13 | 56.27870 | -3.58603 | 22439 ft | 425 kts | 32° |
| 2026-05-06 17:13 | 56.30251 | -3.55382 | 23367 ft | 431 kts | 33° |
| 2026-05-06 17:13 | 56.32658 | -3.52117 | 24216 ft | 436 kts | 32° |
| 2026-05-06 17:14 | 56.35100 | -3.48838 | 25065 ft | 439 kts | 32° |
| 2026-05-06 17:14 | 56.37567 | -3.45572 | 25914 ft | 442 kts | 31° |
| 2026-05-06 17:14 | 56.40075 | -3.42297 | 26622 ft | 445 kts | 31° |
| 2026-05-06 17:14 | 56.42584 | -3.39031 | 26978 ft | 447 kts | 31° |
| 2026-05-06 17:15 | 56.45154 | -3.35701 | 27047 ft | 464 kts | 31° |
| 2026-05-06 17:15 | 56.47861 | -3.32297 | 27044 ft | 482 kts | 30° |
| 2026-05-06 17:15 | 56.50602 | -3.28923 | 27042 ft | 484 kts | 30° |
| 2026-05-06 17:15 | 56.53393 | -3.25500 | 27067 ft | 485 kts | 30° |
| 2026-05-06 17:16 | 56.56191 | -3.22059 | 27046 ft | 485 kts | 30° |
| 2026-05-06 17:16 | 56.58982 | -3.18609 | 27042 ft | 486 kts | 30° |
| 2026-05-06 17:16 | 56.61775 | -3.15143 | 27040 ft | 486 kts | 30° |
| 2026-05-06 17:16 | 56.64562 | -3.11670 | 27039 ft | 486 kts | 30° |
| 2026-05-06 17:17 | 56.67354 | -3.08179 | 27037 ft | 486 kts | 30° |
| 2026-05-06 17:17 | 56.70138 | -3.04692 | 27032 ft | 487 kts | 30° |
| 2026-05-06 17:17 | 56.72889 | -3.01246 | 27036 ft | 487 kts | 30° |
| 2026-05-06 17:17 | 56.75674 | -2.97745 | 27035 ft | 487 kts | 30° |
| 2026-05-06 17:18 | 56.78461 | -2.94230 | 27032 ft | 487 kts | 30° |
| 2026-05-06 17:18 | 56.81240 | -2.90719 | 27058 ft | 487 kts | 30° |
| 2026-05-06 17:18 | 56.84029 | -2.87192 | 27028 ft | 488 kts | 30° |
| 2026-05-06 17:18 | 56.86823 | -2.83654 | 27025 ft | 489 kts | 30° |
| 2026-05-06 17:19 | 56.89609 | -2.80118 | 27032 ft | 489 kts | 30° |
| 2026-05-06 17:19 | 56.92403 | -2.76566 | 27029 ft | 489 kts | 30° |
| 2026-05-06 17:19 | 56.95192 | -2.73013 | 27028 ft | 488 kts | 30° |
| 2026-05-06 17:19 | 56.97945 | -2.69502 | 27029 ft | 488 kts | 30° |
| 2026-05-06 17:20 | 57.00732 | -2.65939 | 27033 ft | 489 kts | 30° |
| 2026-05-06 17:20 | 57.03523 | -2.62365 | 27032 ft | 489 kts | 30° |
| 2026-05-06 17:20 | 57.06310 | -2.58788 | 27041 ft | 489 kts | 31° |
| 2026-05-06 17:20 | 57.09092 | -2.55209 | 27069 ft | 489 kts | 30° |
| 2026-05-06 17:21 | 57.11885 | -2.51611 | 27040 ft | 489 kts | 30° |
| 2026-05-06 17:21 | 57.14666 | -2.48024 | 27042 ft | 489 kts | 30° |
| 2026-05-06 17:21 | 57.17425 | -2.44460 | 27045 ft | 489 kts | 30° |
| 2026-05-06 17:21 | 57.20205 | -2.40858 | 27045 ft | 490 kts | 30° |
| 2026-05-06 17:22 | 57.22992 | -2.37242 | 27048 ft | 490 kts | 30° |
| 2026-05-06 17:22 | 57.25778 | -2.33621 | 27047 ft | 490 kts | 31° |
| 2026-05-06 17:22 | 57.28543 | -2.29944 | 27045 ft | 492 kts | 33° |
| 2026-05-06 17:22 | 57.31078 | -2.25645 | 27045 ft | 498 kts | 43° |
| 2026-05-06 17:23 | 57.33259 | -2.20648 | 27044 ft | 501 kts | 49° |
| 2026-05-06 17:23 | 57.35300 | -2.15418 | 27043 ft | 502 kts | 51° |
| 2026-05-06 17:23 | 57.37276 | -2.10075 | 27061 ft | 503 kts | 52° |
| 2026-05-06 17:23 | 57.39221 | -2.04677 | 27045 ft | 504 kts | 53° |
| 2026-05-06 17:24 | 57.41132 | -1.99330 | 27042 ft | 505 kts | 53° |
| 2026-05-06 17:24 | 57.43071 | -1.93903 | 27043 ft | 505 kts | 53° |
| 2026-05-06 17:24 | 57.45014 | -1.88480 | 27044 ft | 505 kts | 52° |
| 2026-05-06 17:24 | 57.46963 | -1.83052 | 27045 ft | 505 kts | 52° |
| 2026-05-06 17:25 | 57.48909 | -1.77642 | 27046 ft | 505 kts | 53° |
| 2026-05-06 17:25 | 57.50861 | -1.72212 | 27042 ft | 504 kts | 53° |
| 2026-05-06 17:25 | 57.52812 | -1.66776 | 27050 ft | 504 kts | 53° |
| 2026-05-06 17:25 | 57.54753 | -1.61357 | 27051 ft | 504 kts | 53° |
| 2026-05-06 17:26 | 57.56698 | -1.55912 | 27049 ft | 504 kts | 53° |
| 2026-05-06 17:26 | 57.58638 | -1.50469 | 27047 ft | 504 kts | 53° |
| 2026-05-06 17:26 | 57.60548 | -1.45097 | 27048 ft | 504 kts | 53° |
| 2026-05-06 17:26 | 57.62476 | -1.39663 | 27051 ft | 504 kts | 53° |
| 2026-05-06 17:27 | 57.64415 | -1.34184 | 27049 ft | 504 kts | 53° |
| 2026-05-06 17:27 | 57.66350 | -1.28702 | 27056 ft | 505 kts | 53° |
| 2026-05-06 17:27 | 57.68280 | -1.23225 | 27050 ft | 506 kts | 53° |
| 2026-05-06 17:27 | 57.70213 | -1.17728 | 27054 ft | 507 kts | 53° |
| 2026-05-06 17:28 | 57.72146 | -1.12216 | 27053 ft | 507 kts | 53° |
| 2026-05-06 17:28 | 57.74078 | -1.06692 | 27053 ft | 507 kts | 53° |
| 2026-05-06 17:28 | 57.76002 | -1.01178 | 27053 ft | 507 kts | 53° |
| 2026-05-06 17:28 | 57.77904 | -0.95716 | 27056 ft | 507 kts | 53° |
| 2026-05-06 17:29 | 57.79824 | -0.90191 | 27056 ft | 507 kts | 53° |
| 2026-05-06 17:29 | 57.81743 | -0.84652 | 27056 ft | 507 kts | 53° |
| 2026-05-06 17:29 | 57.83667 | -0.79089 | 27056 ft | 507 kts | 53° |
| 2026-05-06 17:29 | 57.85581 | -0.73541 | 27056 ft | 507 kts | 53° |
| 2026-05-06 17:30 | 57.87496 | -0.67979 | 27061 ft | 507 kts | 53° |
| 2026-05-06 17:30 | 57.89407 | -0.62416 | 27061 ft | 507 kts | 54° |
| 2026-05-06 17:30 | 57.91316 | -0.56841 | 27061 ft | 507 kts | 54° |
| 2026-05-06 17:30 | 57.93197 | -0.51339 | 27073 ft | 507 kts | 53° |
| 2026-05-06 17:31 | 57.95101 | -0.45755 | 27061 ft | 508 kts | 53° |
| 2026-05-06 17:31 | 57.97008 | -0.40150 | 27059 ft | 509 kts | 53° |
| 2026-05-06 17:31 | 57.98915 | -0.34534 | 27058 ft | 509 kts | 53° |
| 2026-05-06 17:31 | 58.00819 | -0.28911 | 27059 ft | 509 kts | 54° |
| 2026-05-06 17:32 | 58.02723 | -0.23274 | 27062 ft | 509 kts | 54° |
| 2026-05-06 17:32 | 58.04623 | -0.17638 | 27062 ft | 509 kts | 54° |
| 2026-05-06 17:32 | 58.06521 | -0.11991 | 27061 ft | 509 kts | 54° |
| 2026-05-06 17:32 | 58.08415 | -0.06345 | 27061 ft | 509 kts | 54° |
| 2026-05-06 17:33 | 58.10306 | -0.00695 | 27064 ft | 509 kts | 54° |
| 2026-05-06 17:33 | 58.12171 | 0.04891 | 27061 ft | 509 kts | 54° |
| 2026-05-06 17:33 | 58.14060 | 0.10564 | 27062 ft | 509 kts | 54° |
| 2026-05-06 17:33 | 58.15946 | 0.16240 | 27061 ft | 509 kts | 54° |
| 2026-05-06 17:34 | 58.17825 | 0.21910 | 27062 ft | 509 kts | 54° |
| 2026-05-06 17:34 | 58.19704 | 0.27594 | 27061 ft | 509 kts | 54° |
| 2026-05-06 17:34 | 58.21584 | 0.33300 | 27059 ft | 510 kts | 54° |
| 2026-05-06 17:34 | 58.23461 | 0.39007 | 27059 ft | 511 kts | 54° |
| 2026-05-06 17:35 | 58.25343 | 0.44739 | 27063 ft | 511 kts | 54° |
| 2026-05-06 17:35 | 58.27220 | 0.50467 | 27061 ft | 511 kts | 54° |
| 2026-05-06 17:35 | 58.29072 | 0.56133 | 27061 ft | 511 kts | 54° |
| 2026-05-06 17:36 | 58.32817 | 0.67635 | 27061 ft | 512 kts | 54° |
| 2026-05-06 17:36 | 58.34687 | 0.73400 | 27065 ft | 512 kts | 54° |
| 2026-05-06 17:36 | 58.36551 | 0.79163 | 27065 ft | 512 kts | 54° |
| 2026-05-06 17:36 | 58.38420 | 0.84954 | 27061 ft | 512 kts | 54° |
| 2026-05-06 17:37 | 58.40277 | 0.90726 | 27063 ft | 512 kts | 55° |
| 2026-05-06 17:37 | 58.42137 | 0.96516 | 27062 ft | 512 kts | 55° |
| 2026-05-06 17:37 | 58.43998 | 1.02325 | 27066 ft | 512 kts | 55° |
| 2026-05-06 17:37 | 58.45850 | 1.08120 | 27069 ft | 512 kts | 55° |
| 2026-05-06 17:38 | 58.47678 | 1.13856 | 27099 ft | 512 kts | 54° |
| 2026-05-06 17:38 | 58.49525 | 1.19670 | 27066 ft | 513 kts | 54° |
| 2026-05-06 17:38 | 58.51383 | 1.25525 | 27061 ft | 514 kts | 55° |
| 2026-05-06 17:38 | 58.53236 | 1.31378 | 27064 ft | 515 kts | 55° |
| 2026-05-06 17:39 | 58.55084 | 1.37230 | 27063 ft | 515 kts | 55° |
| 2026-05-06 17:39 | 58.56934 | 1.43106 | 27065 ft | 515 kts | 55° |
| 2026-05-06 17:39 | 58.58780 | 1.48985 | 27066 ft | 515 kts | 55° |
| 2026-05-06 17:39 | 58.60623 | 1.54867 | 27067 ft | 515 kts | 55° |
| 2026-05-06 17:40 | 58.62441 | 1.60686 | 27061 ft | 515 kts | 55° |
| 2026-05-06 17:40 | 58.64279 | 1.66582 | 27065 ft | 515 kts | 55° |
| 2026-05-06 17:40 | 58.66113 | 1.72483 | 27063 ft | 515 kts | 55° |
| 2026-05-06 17:40 | 58.67945 | 1.78389 | 27064 ft | 515 kts | 56° |
| 2026-05-06 17:41 | 58.69779 | 1.84316 | 27060 ft | 515 kts | 56° |
| 2026-05-06 17:41 | 58.71607 | 1.90239 | 27070 ft | 515 kts | 56° |
| 2026-05-06 17:41 | 58.73430 | 1.96163 | 27062 ft | 516 kts | 56° |
| 2026-05-06 17:41 | 58.75261 | 2.02126 | 27066 ft | 517 kts | 56° |
| 2026-05-06 17:42 | 58.77090 | 2.08098 | 27069 ft | 517 kts | 56° |
| 2026-05-06 17:42 | 58.78911 | 2.14061 | 27066 ft | 517 kts | 56° |
| 2026-05-06 17:42 | 58.80675 | 2.20106 | 27064 ft | 519 kts | 60° |
| 2026-05-06 17:42 | 58.82220 | 2.26401 | 27061 ft | 520 kts | 62° |
| 2026-05-06 17:43 | 58.83711 | 2.32656 | 27065 ft | 520 kts | 62° |
| 2026-05-06 17:43 | 58.85237 | 2.38983 | 27061 ft | 519 kts | 62° |
| 2026-05-06 17:43 | 58.86772 | 2.45291 | 27063 ft | 519 kts | 62° |
| 2026-05-06 17:43 | 58.88317 | 2.51614 | 27066 ft | 519 kts | 62° |
| 2026-05-06 17:44 | 58.89859 | 2.57919 | 27065 ft | 520 kts | 62° |
| 2026-05-06 17:44 | 58.91403 | 2.64238 | 27069 ft | 520 kts | 62° |
| 2026-05-06 17:44 | 58.92950 | 2.70577 | 27066 ft | 521 kts | 62° |
| 2026-05-06 17:44 | 58.94491 | 2.76910 | 27066 ft | 521 kts | 62° |
| 2026-05-06 17:45 | 58.96014 | 2.83182 | 27060 ft | 521 kts | 62° |
| 2026-05-06 17:45 | 58.97573 | 2.89622 | 27061 ft | 521 kts | 62° |
| 2026-05-06 17:45 | 58.99086 | 2.95892 | 27061 ft | 521 kts | 62° |
| 2026-05-06 17:45 | 59.00619 | 3.02263 | 27086 ft | 521 kts | 62° |
| 2026-05-06 17:46 | 59.02147 | 3.08627 | 27074 ft | 523 kts | 62° |
| 2026-05-06 17:46 | 59.03683 | 3.15041 | 27075 ft | 523 kts | 62° |
| 2026-05-06 17:46 | 59.05215 | 3.21463 | 27070 ft | 524 kts | 63° |
| 2026-05-06 17:46 | 59.06746 | 3.27896 | 27050 ft | 525 kts | 63° |
| 2026-05-06 17:47 | 59.08277 | 3.34351 | 27050 ft | 526 kts | 63° |
| 2026-05-06 17:47 | 59.09804 | 3.40808 | 27065 ft | 526 kts | 63° |
| 2026-05-06 17:47 | 59.11309 | 3.47190 | 27068 ft | 526 kts | 63° |
| 2026-05-06 17:47 | 59.12829 | 3.53657 | 27057 ft | 526 kts | 63° |
| 2026-05-06 17:48 | 59.14347 | 3.60133 | 27047 ft | 526 kts | 63° |
| 2026-05-06 17:48 | 59.15861 | 3.66611 | 27056 ft | 526 kts | 63° |
| 2026-05-06 17:48 | 59.17371 | 3.73094 | 27067 ft | 526 kts | 63° |
| 2026-05-06 17:48 | 59.18885 | 3.79611 | 27059 ft | 526 kts | 63° |
| 2026-05-06 17:49 | 59.20389 | 3.86105 | 27047 ft | 526 kts | 64° |
| 2026-05-06 17:49 | 59.21892 | 3.92618 | 27047 ft | 527 kts | 64° |
| 2026-05-06 17:49 | 59.23395 | 3.99148 | 27067 ft | 528 kts | 64° |
| 2026-05-06 17:49 | 59.24900 | 4.05703 | 27062 ft | 528 kts | 64° |
| 2026-05-06 17:50 | 59.26396 | 4.12248 | 27065 ft | 529 kts | 64° |
| 2026-05-06 17:50 | 59.27901 | 4.18845 | 27053 ft | 531 kts | 64° |
| 2026-05-06 17:50 | 59.29404 | 4.25456 | 27053 ft | 532 kts | 64° |
| 2026-05-06 17:50 | 59.30886 | 4.31995 | 27053 ft | 532 kts | 64° |
| 2026-05-06 17:51 | 59.32384 | 4.38626 | 27053 ft | 533 kts | 64° |
| 2026-05-06 17:51 | 59.33877 | 4.45254 | 27053 ft | 533 kts | 64° |
| 2026-05-06 17:51 | 59.35368 | 4.51896 | 27041 ft | 533 kts | 64° |
| 2026-05-06 17:51 | 59.36855 | 4.58538 | 27052 ft | 533 kts | 65° |
| 2026-05-06 17:52 | 59.38343 | 4.65205 | 27057 ft | 534 kts | 65° |
| 2026-05-06 17:52 | 59.39828 | 4.71883 | 27051 ft | 534 kts | 65° |
| 2026-05-06 17:52 | 59.41312 | 4.78575 | 27050 ft | 534 kts | 65° |
| 2026-05-06 17:52 | 59.42788 | 4.85257 | 27050 ft | 534 kts | 65° |
| 2026-05-06 17:53 | 59.44266 | 4.91966 | 27050 ft | 534 kts | 65° |
| 2026-05-06 17:53 | 59.45736 | 4.98657 | 27049 ft | 534 kts | 65° |
| 2026-05-06 17:53 | 59.47182 | 5.05266 | 27049 ft | 534 kts | 65° |
| 2026-05-06 17:53 | 59.48650 | 5.11992 | 27049 ft | 534 kts | 65° |
| 2026-05-06 17:54 | 59.50108 | 5.18695 | 27120 ft | 534 kts | 65° |
| 2026-05-06 17:54 | 59.51573 | 5.25455 | 27048 ft | 537 kts | 65° |
| 2026-05-06 17:54 | 59.53041 | 5.32243 | 27047 ft | 539 kts | 65° |
| 2026-05-06 17:54 | 59.54506 | 5.39045 | 27048 ft | 540 kts | 65° |
| 2026-05-06 17:55 | 59.55970 | 5.45866 | 27050 ft | 540 kts | 66° |
| 2026-05-06 17:55 | 59.57430 | 5.52687 | 27043 ft | 540 kts | 66° |
| 2026-05-06 17:55 | 59.58397 | 5.57217 | 27044 ft | 540 kts | 66° |
| 2026-05-06 17:55 | 59.60342 | 5.66366 | 27038 ft | 540 kts | 66° |
| 2026-05-06 17:56 | 59.61302 | 5.70893 | 27040 ft | 541 kts | 66° |
| 2026-05-06 17:56 | 59.63218 | 5.79965 | 27032 ft | 541 kts | 66° |
| 2026-05-06 17:56 | 59.64662 | 5.86823 | 27028 ft | 540 kts | 66° |
| 2026-05-06 17:56 | 59.66102 | 5.93689 | 27031 ft | 540 kts | 66° |
| 2026-05-06 17:57 | 59.67075 | 5.98342 | 27032 ft | 540 kts | 66° |
| 2026-05-06 17:57 | 59.68489 | 6.05120 | 27020 ft | 540 kts | 66° |
| 2026-05-06 17:57 | 59.69920 | 6.12003 | 27022 ft | 540 kts | 66° |
| 2026-05-06 17:57 | 59.71346 | 6.18885 | 27017 ft | 540 kts | 66° |
| 2026-05-06 17:58 | 59.72766 | 6.25767 | 27020 ft | 540 kts | 66° |
| 2026-05-06 17:58 | 59.74186 | 6.32664 | 27053 ft | 541 kts | 66° |
| 2026-05-06 17:58 | 59.75609 | 6.39592 | 27025 ft | 543 kts | 66° |
| 2026-05-06 17:58 | 59.77032 | 6.46553 | 27023 ft | 544 kts | 66° |
| 2026-05-06 17:59 | 59.78447 | 6.53514 | 27026 ft | 545 kts | 66° |
| 2026-05-06 17:59 | 59.79866 | 6.60505 | 27007 ft | 546 kts | 67° |
| 2026-05-06 17:59 | 59.81282 | 6.67502 | 27019 ft | 546 kts | 67° |
| 2026-05-06 17:59 | 59.82692 | 6.74496 | 27022 ft | 546 kts | 67° |
| 2026-05-06 18:00 | 59.84098 | 6.81496 | 27023 ft | 546 kts | 67° |
| 2026-05-06 18:00 | 59.85488 | 6.88436 | 27024 ft | 547 kts | 67° |
| 2026-05-06 18:00 | 59.86888 | 6.95457 | 27025 ft | 547 kts | 68° |
| 2026-05-06 18:00 | 59.88289 | 7.02500 | 27022 ft | 547 kts | 68° |
| 2026-05-06 18:01 | 59.89682 | 7.09537 | 27027 ft | 546 kts | 68° |
| 2026-05-06 18:01 | 59.91074 | 7.16592 | 27019 ft | 546 kts | 68° |
| 2026-05-06 18:01 | 59.92456 | 7.23617 | 27024 ft | 546 kts | 68° |
| 2026-05-06 18:01 | 59.93842 | 7.30686 | 27015 ft | 546 kts | 68° |
| 2026-05-06 18:02 | 59.95220 | 7.37746 | 27024 ft | 546 kts | 68° |
| 2026-05-06 18:02 | 59.96592 | 7.44798 | 27085 ft | 545 kts | 68° |
| 2026-05-06 18:02 | 59.97961 | 7.51859 | 27027 ft | 547 kts | 68° |
| 2026-05-06 18:02 | 59.99337 | 7.58976 | 27030 ft | 549 kts | 68° |
| 2026-05-06 18:03 | 60.00704 | 7.66082 | 27025 ft | 549 kts | 68° |
| 2026-05-06 18:03 | 60.02074 | 7.73222 | 27025 ft | 550 kts | 68° |
| 2026-05-06 18:03 | 60.03421 | 7.80269 | 27007 ft | 549 kts | 68° |
| 2026-05-06 18:03 | 60.04780 | 7.87407 | 27023 ft | 549 kts | 68° |
| 2026-05-06 18:04 | 60.06153 | 7.94643 | 27024 ft | 549 kts | 68° |
| 2026-05-06 18:04 | 60.07491 | 8.01714 | 27003 ft | 550 kts | 69° |
| 2026-05-06 18:04 | 60.08838 | 8.08867 | 27008 ft | 550 kts | 69° |
| 2026-05-06 18:04 | 60.10184 | 8.16044 | 26947 ft | 547 kts | 69° |
| 2026-05-06 18:05 | 60.11504 | 8.23104 | 26338 ft | 538 kts | 69° |
| 2026-05-06 18:05 | 60.12808 | 8.30113 | 25626 ft | 533 kts | 69° |
| 2026-05-06 18:05 | 60.14093 | 8.37037 | 24990 ft | 527 kts | 68° |
| 2026-05-06 18:05 | 60.15363 | 8.43908 | 24334 ft | 521 kts | 68° |
| 2026-05-06 18:06 | 60.16608 | 8.50668 | 23706 ft | 514 kts | 68° |
| 2026-05-06 18:06 | 60.17842 | 8.57392 | 22942 ft | 508 kts | 68° |
| 2026-05-06 18:06 | 60.19053 | 8.64000 | 22162 ft | 504 kts | 68° |
| 2026-05-06 18:06 | 60.20261 | 8.70612 | 21252 ft | 502 kts | 68° |
| 2026-05-06 18:07 | 60.21451 | 8.77163 | 20606 ft | 494 kts | 69° |
| 2026-05-06 18:07 | 60.22619 | 8.83613 | 19896 ft | 487 kts | 69° |
| 2026-05-06 18:07 | 60.23754 | 8.89904 | 19192 ft | 482 kts | 69° |
| 2026-05-06 18:07 | 60.24886 | 8.96202 | 18549 ft | 475 kts | 68° |
| 2026-05-06 18:08 | 60.25992 | 9.02378 | 18198 ft | 460 kts | 69° |
| 2026-05-06 18:08 | 60.27056 | 9.08353 | 17874 ft | 446 kts | 69° |
| 2026-05-06 18:08 | 60.28085 | 9.14132 | 17593 ft | 432 kts | 69° |
| 2026-05-06 18:08 | 60.29083 | 9.19746 | 17316 ft | 418 kts | 69° |
| 2026-05-06 18:09 | 60.30044 | 9.25182 | 17069 ft | 405 kts | 69° |
| 2026-05-06 18:09 | 60.30792 | 9.30627 | 16421 ft | 404 kts | 76° |
| 2026-05-06 18:09 | 60.31387 | 9.36210 | 15520 ft | 410 kts | 78° |
| 2026-05-06 18:09 | 60.31946 | 9.41869 | 14673 ft | 413 kts | 78° |
| 2026-05-06 18:10 | 60.32494 | 9.47558 | 13839 ft | 411 kts | 79° |
| 2026-05-06 18:10 | 60.33027 | 9.53179 | 13095 ft | 406 kts | 79° |
| 2026-05-06 18:10 | 60.33551 | 9.58748 | 12376 ft | 400 kts | 79° |
| 2026-05-06 18:10 | 60.34065 | 9.64256 | 12001 ft | 399 kts | 79° |
| 2026-05-06 18:11 | 60.34567 | 9.69687 | 11927 ft | 399 kts | 80° |
| 2026-05-06 18:11 | 60.35074 | 9.75182 | 11926 ft | 398 kts | 80° |
| 2026-05-06 18:11 | 60.35578 | 9.80676 | 11926 ft | 397 kts | 80° |
| 2026-05-06 18:11 | 60.36078 | 9.86158 | 11903 ft | 397 kts | 80° |
| 2026-05-06 18:12 | 60.36572 | 9.91588 | 11513 ft | 386 kts | 80° |
| 2026-05-06 18:12 | 60.37045 | 9.96815 | 11132 ft | 372 kts | 80° |
| 2026-05-06 18:12 | 60.37508 | 10.01954 | 10435 ft | 374 kts | 80° |
| 2026-05-06 18:12 | 60.37974 | 10.07177 | 10029 ft | 379 kts | 80° |
| 2026-05-06 18:13 | 60.38441 | 10.12417 | 9922 ft | 377 kts | 80° |
| 2026-05-06 18:13 | 60.38895 | 10.17527 | 9909 ft | 365 kts | 81° |
| 2026-05-06 18:13 | 60.39331 | 10.22450 | 9674 ft | 347 kts | 81° |
| 2026-05-06 18:13 | 60.39744 | 10.27143 | 9397 ft | 332 kts | 81° |
| 2026-05-06 18:14 | 60.40139 | 10.31648 | 9118 ft | 318 kts | 81° |
| 2026-05-06 18:14 | 60.40515 | 10.35964 | 8876 ft | 305 kts | 81° |
| 2026-05-06 18:14 | 60.40875 | 10.40112 | 8625 ft | 294 kts | 81° |
| 2026-05-06 18:14 | 60.41222 | 10.44133 | 8241 ft | 289 kts | 81° |
| 2026-05-06 18:15 | 60.41564 | 10.48105 | 7794 ft | 285 kts | 80° |
| 2026-05-06 18:15 | 60.41902 | 10.52041 | 7361 ft | 283 kts | 80° |
| 2026-05-06 18:15 | 60.42236 | 10.55953 | 6929 ft | 281 kts | 80° |
| 2026-05-06 18:15 | 60.42568 | 10.59829 | 6510 ft | 278 kts | 80° |
| 2026-05-06 18:16 | 60.42896 | 10.63683 | 6067 ft | 276 kts | 80° |
| 2026-05-06 18:16 | 60.43221 | 10.67505 | 5578 ft | 276 kts | 79° |
| 2026-05-06 18:16 | 60.43728 | 10.71232 | 5140 ft | 274 kts | 73° |
| 2026-05-06 18:16 | 60.44134 | 10.74995 | 5004 ft | 273 kts | 75° |
| 2026-05-06 18:17 | 60.44928 | 10.78416 | 5010 ft | 272 kts | 54° |
| 2026-05-06 18:17 | 60.46049 | 10.81451 | 4989 ft | 263 kts | 51° |
| 2026-05-06 18:17 | 60.46741 | 10.84701 | 4985 ft | 246 kts | 84° |
| 2026-05-06 18:17 | 60.46497 | 10.88055 | 5001 ft | 240 kts | 107° |
| 2026-05-06 18:18 | 60.46209 | 10.91386 | 5005 ft | 242 kts | 90° |
| 2026-05-06 18:18 | 60.46272 | 10.94796 | 5002 ft | 241 kts | 87° |
| 2026-05-06 18:18 | 60.46362 | 10.98190 | 4997 ft | 242 kts | 87° |
| 2026-05-06 18:18 | 60.46454 | 11.01587 | 4996 ft | 242 kts | 86° |
| 2026-05-06 18:19 | 60.46541 | 11.04990 | 5006 ft | 242 kts | 87° |
| 2026-05-06 18:19 | 60.46631 | 11.08391 | 4923 ft | 242 kts | 86° |
| 2026-05-06 18:19 | 60.46650 | 11.11790 | 4590 ft | 241 kts | 97° |
| 2026-05-06 18:19 | 60.46064 | 11.14919 | 4241 ft | 238 kts | 122° |
| 2026-05-06 18:20 | 60.45106 | 11.17628 | 4019 ft | 235 kts | 131° |
| 2026-05-06 18:20 | 60.43988 | 11.20049 | 3996 ft | 235 kts | 136° |
| 2026-05-06 18:20 | 60.42742 | 11.22182 | 4002 ft | 235 kts | 150° |
| 2026-05-06 18:20 | 60.41308 | 11.23658 | 3994 ft | 234 kts | 157° |
| 2026-05-06 18:21 | 60.39823 | 11.24982 | 3977 ft | 233 kts | 160° |
| 2026-05-06 18:21 | 60.38239 | 11.25444 | 4010 ft | 230 kts | 187° |
| 2026-05-06 18:21 | 60.36679 | 11.24877 | 3998 ft | 228 kts | 195° |
| 2026-05-06 18:21 | 60.35163 | 11.24131 | 3999 ft | 216 kts | 196° |
| 2026-05-06 18:22 | 60.33782 | 11.23345 | 4001 ft | 195 kts | 200° |
| 2026-05-06 18:22 | 60.32528 | 11.22508 | 3996 ft | 187 kts | 201° |
| 2026-05-06 18:22 | 60.31316 | 11.21576 | 3997 ft | 186 kts | 205° |
| 2026-05-06 18:22 | 60.30125 | 11.20585 | 4005 ft | 185 kts | 205° |
| 2026-05-06 18:23 | 60.28947 | 11.19557 | 3996 ft | 184 kts | 207° |
| 2026-05-06 18:23 | 60.27813 | 11.18428 | 3992 ft | 185 kts | 208° |
| 2026-05-06 18:23 | 60.26655 | 11.17257 | 3683 ft | 182 kts | 208° |
| 2026-05-06 18:23 | 60.25546 | 11.16132 | 3227 ft | 181 kts | 209° |
| 2026-05-06 18:24 | 60.24404 | 11.14968 | 2962 ft | 181 kts | 208° |
| 2026-05-06 18:24 | 60.23257 | 11.14113 | 2524 ft | 174 kts | 199° |
| 2026-05-06 18:24 | 60.22093 | 11.13448 | 1924 ft | 175 kts | 204° |
| 2026-05-06 18:24 | 60.20940 | 11.12696 | 1284 ft | 172 kts | 196° |
| 2026-05-06 18:25 | 60.19777 | 11.12048 | 729 ft | 171 kts | 199° |
| 2026-05-06 18:25 | 60.18742 | 11.11450 | 681 ft | 125 kts | 195° |
| 2026-05-06 18:25 | 60.17993 | 11.11025 | 678 ft | 98 kts | 190° |
| 2026-05-06 18:25 | 60.17683 | 11.10834 | 673 ft | 22 kts | 199° |
| 2026-05-06 18:26 | 60.17614 | 11.10668 | 676 ft | 8 kts | 270° |
| 2026-05-06 18:26 | 60.17615 | 11.10638 | 676 ft | 0 kts | 274° |
| 2026-05-06 18:27 | 60.17617 | 11.10609 | 676 ft | 5 kts | 279° |
| 2026-05-06 18:27 | 60.17629 | 11.10504 | 675 ft | 10 kts | 284° |
| 2026-05-06 18:28 | 60.17632 | 11.10477 | 674 ft | 3 kts | 284° |
| 2026-05-06 18:28 | 60.17642 | 11.10405 | 679 ft | 0 kts | 285° |